UAE921 OMDB-HECA
Flight info
| Callsign | UAE921 |
|---|---|
| Flight time | 3h 26m |
| Altitude | 32000 |
| Route | SENPA N571 ALPOB L768 VATIM L550 NOVPA N697 MENLI L677 CVO |
| Aircraft | B77W/H-SDE1E2E3FGHIJ2J3J4J5M1RWXY/LB1D1 |
Departure
| Time | 2026-05-05 19:12 |
|---|---|
| Airport | Dubai International Airport (OMDB) |
Arrival
| Time | 2026-05-05 22:39 |
|---|---|
| Airport | Cairo International Airport (HECA) |
| Time | Latitude | Longitude | Altitude | Speed | Heading |
|---|---|---|---|---|---|
| 2026-05-05 18:20 | 25.24705 | 55.36230 | 31 ft | 0 kts | 31° |
| 2026-05-05 19:00 | 25.24702 | 55.36228 | 26 ft | 3 kts | 31° |
| 2026-05-05 19:00 | 25.24679 | 55.36212 | 31 ft | 4 kts | 31° |
| 2026-05-05 19:00 | 25.24660 | 55.36200 | 31 ft | 3 kts | 33° |
| 2026-05-05 19:00 | 25.24643 | 55.36181 | 31 ft | 4 kts | 76° |
| 2026-05-05 19:01 | 25.24646 | 55.36155 | 31 ft | 4 kts | 121° |
| 2026-05-05 19:01 | 25.24659 | 55.36131 | 31 ft | 4 kts | 122° |
| 2026-05-05 19:01 | 25.24670 | 55.36111 | 31 ft | 0 kts | 122° |
| 2026-05-05 19:04 | 25.24661 | 55.36127 | 31 ft | 6 kts | 122° |
| 2026-05-05 19:04 | 25.24625 | 55.36191 | 31 ft | 13 kts | 121° |
| 2026-05-05 19:05 | 25.24564 | 55.36301 | 30 ft | 20 kts | 122° |
| 2026-05-05 19:05 | 25.24479 | 55.36450 | 30 ft | 25 kts | 121° |
| 2026-05-05 19:05 | 25.24475 | 55.36639 | 31 ft | 24 kts | 55° |
| 2026-05-05 19:05 | 25.24609 | 55.36748 | 29 ft | 24 kts | 32° |
| 2026-05-05 19:06 | 25.24727 | 55.36846 | 31 ft | 19 kts | 70° |
| 2026-05-05 19:06 | 25.24714 | 55.36912 | 30 ft | 0 kts | 120° |
| 2026-05-05 19:07 | 25.24708 | 55.36923 | 29 ft | 6 kts | 120° |
| 2026-05-05 19:08 | 25.24657 | 55.37017 | 31 ft | 23 kts | 122° |
| 2026-05-05 19:08 | 25.24564 | 55.37183 | 30 ft | 27 kts | 122° |
| 2026-05-05 19:08 | 25.24471 | 55.37347 | 30 ft | 24 kts | 122° |
| 2026-05-05 19:08 | 25.24379 | 55.37511 | 27 ft | 25 kts | 122° |
| 2026-05-05 19:09 | 25.24297 | 55.37657 | 29 ft | 20 kts | 122° |
| 2026-05-05 19:09 | 25.24276 | 55.37771 | 32 ft | 15 kts | 59° |
| 2026-05-05 19:09 | 25.24343 | 55.37830 | 26 ft | 8 kts | 36° |
| 2026-05-05 19:09 | 25.24418 | 55.37889 | 28 ft | 23 kts | 34° |
| 2026-05-05 19:10 | 25.24559 | 55.37995 | 28 ft | 21 kts | 34° |
| 2026-05-05 19:10 | 25.24670 | 55.38074 | 29 ft | 17 kts | 31° |
| 2026-05-05 19:10 | 25.24766 | 55.38092 | 31 ft | 14 kts | 328° |
| 2026-05-05 19:10 | 25.24792 | 55.38055 | 30 ft | 0 kts | 301° |
| 2026-05-05 19:11 | 25.24795 | 55.38050 | 30 ft | 8 kts | 301° |
| 2026-05-05 19:11 | 25.24935 | 55.37793 | 30 ft | 76 kts | 302° |
| 2026-05-05 19:11 | 25.25332 | 55.37083 | 30 ft | 142 kts | 302° |
| 2026-05-05 19:11 | 25.25954 | 55.35976 | 45 ft | 192 kts | 303° |
| 2026-05-05 19:12 | 25.26693 | 55.34665 | 560 ft | 202 kts | 304° |
| 2026-05-05 19:12 | 25.27440 | 55.33355 | 1051 ft | 213 kts | 302° |
| 2026-05-05 19:12 | 25.28228 | 55.31915 | 1509 ft | 226 kts | 302° |
| 2026-05-05 19:12 | 25.29066 | 55.30391 | 1960 ft | 236 kts | 302° |
| 2026-05-05 19:13 | 25.29690 | 55.28703 | 2370 ft | 243 kts | 275° |
| 2026-05-05 19:13 | 25.29785 | 55.26827 | 2881 ft | 246 kts | 273° |
| 2026-05-05 19:13 | 25.29915 | 55.24945 | 3592 ft | 245 kts | 275° |
| 2026-05-05 19:13 | 25.30061 | 55.23079 | 4333 ft | 243 kts | 276° |
| 2026-05-05 19:14 | 25.30208 | 55.21223 | 5018 ft | 243 kts | 276° |
| 2026-05-05 19:14 | 25.30359 | 55.19333 | 5518 ft | 255 kts | 276° |
| 2026-05-05 19:14 | 25.30434 | 55.17294 | 5785 ft | 274 kts | 269° |
| 2026-05-05 19:14 | 25.30284 | 55.15157 | 6352 ft | 283 kts | 266° |
| 2026-05-05 19:15 | 25.30082 | 55.12976 | 6983 ft | 288 kts | 265° |
| 2026-05-05 19:15 | 25.29881 | 55.10766 | 7677 ft | 290 kts | 265° |
| 2026-05-05 19:15 | 25.29688 | 55.08537 | 8367 ft | 293 kts | 265° |
| 2026-05-05 19:15 | 25.29501 | 55.06279 | 9048 ft | 297 kts | 265° |
| 2026-05-05 19:16 | 25.29318 | 55.03996 | 9731 ft | 300 kts | 265° |
| 2026-05-05 19:16 | 25.29137 | 55.01684 | 10322 ft | 306 kts | 265° |
| 2026-05-05 19:16 | 25.28950 | 54.99276 | 10572 ft | 327 kts | 266° |
| 2026-05-05 19:16 | 25.28749 | 54.96681 | 10754 ft | 351 kts | 266° |
| 2026-05-05 19:17 | 25.28545 | 54.93906 | 10929 ft | 373 kts | 267° |
| 2026-05-05 19:17 | 25.28450 | 54.90988 | 11373 ft | 386 kts | 269° |
| 2026-05-05 19:17 | 25.28388 | 54.87992 | 12018 ft | 393 kts | 269° |
| 2026-05-05 19:17 | 25.28315 | 54.84957 | 12840 ft | 396 kts | 269° |
| 2026-05-05 19:18 | 25.28231 | 54.81907 | 13679 ft | 399 kts | 269° |
| 2026-05-05 19:18 | 25.28142 | 54.78872 | 14390 ft | 402 kts | 269° |
| 2026-05-05 19:18 | 25.28051 | 54.75731 | 15119 ft | 405 kts | 270° |
| 2026-05-05 19:18 | 25.28295 | 54.72675 | 15733 ft | 407 kts | 284° |
| 2026-05-05 19:19 | 25.29097 | 54.69659 | 16411 ft | 410 kts | 288° |
| 2026-05-05 19:19 | 25.29953 | 54.66640 | 17119 ft | 414 kts | 287° |
| 2026-05-05 19:19 | 25.30782 | 54.63574 | 17840 ft | 418 kts | 287° |
| 2026-05-05 19:19 | 25.31582 | 54.60477 | 18503 ft | 421 kts | 285° |
| 2026-05-05 19:20 | 25.32367 | 54.57354 | 19173 ft | 422 kts | 285° |
| 2026-05-05 19:20 | 25.33150 | 54.54217 | 19832 ft | 425 kts | 285° |
| 2026-05-05 19:20 | 25.33959 | 54.51069 | 20458 ft | 428 kts | 286° |
| 2026-05-05 19:20 | 25.34815 | 54.47905 | 21065 ft | 431 kts | 287° |
| 2026-05-05 19:21 | 25.35690 | 54.44724 | 21660 ft | 435 kts | 286° |
| 2026-05-05 19:21 | 25.36571 | 54.41510 | 22271 ft | 438 kts | 286° |
| 2026-05-05 19:21 | 25.37454 | 54.38271 | 22873 ft | 441 kts | 286° |
| 2026-05-05 19:21 | 25.38337 | 54.35012 | 23447 ft | 444 kts | 286° |
| 2026-05-05 19:22 | 25.39222 | 54.31734 | 23928 ft | 446 kts | 286° |
| 2026-05-05 19:22 | 25.40110 | 54.28439 | 24440 ft | 448 kts | 285° |
| 2026-05-05 19:22 | 25.40969 | 54.25132 | 24954 ft | 449 kts | 284° |
| 2026-05-05 19:22 | 25.41789 | 54.21796 | 25444 ft | 450 kts | 284° |
| 2026-05-05 19:23 | 25.42602 | 54.18441 | 25906 ft | 453 kts | 284° |
| 2026-05-05 19:23 | 25.43423 | 54.15072 | 26380 ft | 454 kts | 284° |
| 2026-05-05 19:23 | 25.44254 | 54.11698 | 26895 ft | 455 kts | 284° |
| 2026-05-05 19:23 | 25.45086 | 54.08319 | 27401 ft | 456 kts | 284° |
| 2026-05-05 19:24 | 25.45915 | 54.04930 | 27858 ft | 457 kts | 284° |
| 2026-05-05 19:24 | 25.46745 | 54.01521 | 28261 ft | 460 kts | 284° |
| 2026-05-05 19:24 | 25.47576 | 53.98101 | 28648 ft | 462 kts | 283° |
| 2026-05-05 19:24 | 25.48410 | 53.94665 | 29020 ft | 464 kts | 283° |
| 2026-05-05 19:25 | 25.49248 | 53.91212 | 29376 ft | 465 kts | 283° |
| 2026-05-05 19:25 | 25.50087 | 53.87752 | 29743 ft | 466 kts | 283° |
| 2026-05-05 19:25 | 25.50928 | 53.84281 | 30063 ft | 467 kts | 283° |
| 2026-05-05 19:25 | 25.51767 | 53.80817 | 30455 ft | 465 kts | 283° |
| 2026-05-05 19:26 | 25.52602 | 53.77367 | 30874 ft | 463 kts | 283° |
| 2026-05-05 19:26 | 25.53431 | 53.73931 | 31273 ft | 461 kts | 283° |
| 2026-05-05 19:26 | 25.54248 | 53.70501 | 31636 ft | 461 kts | 282° |
| 2026-05-05 19:26 | 25.55060 | 53.67069 | 32003 ft | 460 kts | 282° |
| 2026-05-05 19:27 | 25.55861 | 53.63674 | 32649 ft | 452 kts | 282° |
| 2026-05-05 19:27 | 25.56652 | 53.60324 | 33139 ft | 449 kts | 282° |
| 2026-05-05 19:27 | 25.57442 | 53.56973 | 33443 ft | 450 kts | 282° |
| 2026-05-05 19:27 | 25.58232 | 53.53617 | 33726 ft | 450 kts | 282° |
| 2026-05-05 19:28 | 25.59021 | 53.50267 | 34021 ft | 449 kts | 281° |
| 2026-05-05 19:28 | 25.59810 | 53.46920 | 34340 ft | 448 kts | 281° |
| 2026-05-05 19:28 | 25.60594 | 53.43588 | 34658 ft | 446 kts | 281° |
| 2026-05-05 19:28 | 25.61375 | 53.40263 | 34955 ft | 445 kts | 281° |
| 2026-05-05 19:29 | 25.62157 | 53.36950 | 35233 ft | 444 kts | 281° |
| 2026-05-05 19:29 | 25.62941 | 53.33639 | 35524 ft | 443 kts | 281° |
| 2026-05-05 19:29 | 25.63722 | 53.30341 | 35800 ft | 442 kts | 281° |
| 2026-05-05 19:29 | 25.64491 | 53.27087 | 36064 ft | 442 kts | 281° |
| 2026-05-05 19:30 | 25.65275 | 53.23762 | 36318 ft | 441 kts | 281° |
| 2026-05-05 19:30 | 25.66040 | 53.20516 | 36588 ft | 439 kts | 281° |
| 2026-05-05 19:30 | 25.66805 | 53.17265 | 37147 ft | 431 kts | 281° |
| 2026-05-05 19:30 | 25.67554 | 53.14084 | 37728 ft | 424 kts | 281° |
| 2026-05-05 19:31 | 25.69045 | 53.07716 | 37794 ft | 430 kts | 281° |
| 2026-05-05 19:31 | 25.70791 | 53.01328 | 37796 ft | 436 kts | 287° |
| 2026-05-05 19:32 | 25.73415 | 52.95225 | 37793 ft | 440 kts | 293° |
| 2026-05-05 19:32 | 25.75805 | 52.90245 | 37790 ft | 440 kts | 293° |
| 2026-05-05 19:33 | 25.78666 | 52.84240 | 37783 ft | 440 kts | 292° |
| 2026-05-05 19:33 | 25.81504 | 52.78233 | 37783 ft | 439 kts | 292° |
| 2026-05-05 19:34 | 25.84334 | 52.72226 | 37782 ft | 439 kts | 292° |
| 2026-05-05 19:35 | 25.88573 | 52.63215 | 37789 ft | 439 kts | 292° |
| 2026-05-05 19:35 | 25.91358 | 52.57184 | 37785 ft | 438 kts | 291° |
| 2026-05-05 19:36 | 25.94034 | 52.51109 | 37785 ft | 438 kts | 291° |
| 2026-05-05 19:36 | 25.96713 | 52.45035 | 37790 ft | 438 kts | 291° |
| 2026-05-05 19:37 | 25.99405 | 52.38965 | 37782 ft | 438 kts | 291° |
| 2026-05-05 19:37 | 26.02104 | 52.32903 | 37783 ft | 437 kts | 291° |
| 2026-05-05 19:38 | 26.04783 | 52.26886 | 37784 ft | 437 kts | 291° |
| 2026-05-05 19:38 | 26.07473 | 52.20830 | 37787 ft | 437 kts | 291° |
| 2026-05-05 19:39 | 26.10160 | 52.14771 | 37795 ft | 437 kts | 290° |
| 2026-05-05 19:39 | 26.12843 | 52.08709 | 37782 ft | 436 kts | 290° |
| 2026-05-05 19:40 | 26.15521 | 52.02653 | 37778 ft | 436 kts | 290° |
| 2026-05-05 19:40 | 26.18206 | 51.96611 | 37780 ft | 436 kts | 291° |
| 2026-05-05 19:41 | 26.20924 | 51.90588 | 37788 ft | 435 kts | 290° |
| 2026-05-05 19:41 | 26.23592 | 51.84544 | 37803 ft | 435 kts | 290° |
| 2026-05-05 19:42 | 26.26269 | 51.78495 | 37780 ft | 435 kts | 290° |
| 2026-05-05 19:42 | 26.28965 | 51.72464 | 37779 ft | 435 kts | 290° |
| 2026-05-05 19:43 | 26.31655 | 51.66432 | 37778 ft | 434 kts | 290° |
| 2026-05-05 19:43 | 26.34334 | 51.60407 | 37778 ft | 434 kts | 290° |
| 2026-05-05 19:44 | 26.37011 | 51.54380 | 37784 ft | 433 kts | 290° |
| 2026-05-05 19:44 | 26.39229 | 51.48248 | 37772 ft | 427 kts | 283° |
| 2026-05-05 19:45 | 26.41181 | 51.41994 | 37767 ft | 427 kts | 284° |
| 2026-05-05 19:45 | 26.43166 | 51.35758 | 37775 ft | 426 kts | 284° |
| 2026-05-05 19:46 | 26.45201 | 51.29548 | 37782 ft | 426 kts | 284° |
| 2026-05-05 19:46 | 26.47220 | 51.23331 | 37766 ft | 426 kts | 284° |
| 2026-05-05 19:47 | 26.49195 | 51.17107 | 37764 ft | 425 kts | 284° |
| 2026-05-05 19:47 | 26.51169 | 51.10874 | 37776 ft | 426 kts | 283° |
| 2026-05-05 19:48 | 26.53143 | 51.04646 | 37770 ft | 426 kts | 283° |
| 2026-05-05 19:48 | 26.55116 | 50.98413 | 37772 ft | 426 kts | 283° |
| 2026-05-05 19:49 | 26.57087 | 50.92180 | 37774 ft | 426 kts | 283° |
| 2026-05-05 19:49 | 26.59024 | 50.85933 | 37752 ft | 425 kts | 283° |
| 2026-05-05 19:50 | 26.60933 | 50.79682 | 37773 ft | 425 kts | 283° |
| 2026-05-05 19:50 | 26.62847 | 50.73424 | 37771 ft | 426 kts | 283° |
| 2026-05-05 19:51 | 26.64758 | 50.67161 | 37768 ft | 426 kts | 282° |
| 2026-05-05 19:51 | 26.66627 | 50.60884 | 37756 ft | 425 kts | 282° |
| 2026-05-05 19:52 | 26.68488 | 50.54607 | 37768 ft | 425 kts | 282° |
| 2026-05-05 19:52 | 26.70338 | 50.48374 | 37765 ft | 425 kts | 282° |
| 2026-05-05 19:53 | 26.72024 | 50.42064 | 37771 ft | 423 kts | 280° |
| 2026-05-05 19:53 | 26.73623 | 50.35731 | 37777 ft | 423 kts | 280° |
| 2026-05-05 19:54 | 26.75251 | 50.29421 | 37772 ft | 422 kts | 280° |
| 2026-05-05 19:54 | 26.76969 | 50.23149 | 37763 ft | 422 kts | 282° |
| 2026-05-05 19:55 | 26.78863 | 50.16940 | 37763 ft | 421 kts | 282° |
| 2026-05-05 19:55 | 26.80733 | 50.10744 | 37755 ft | 420 kts | 282° |
| 2026-05-05 19:56 | 26.82572 | 50.04551 | 37754 ft | 419 kts | 282° |
| 2026-05-05 19:56 | 26.84405 | 49.98362 | 37768 ft | 419 kts | 282° |
| 2026-05-05 19:57 | 26.86238 | 49.92172 | 37743 ft | 419 kts | 282° |
| 2026-05-05 19:57 | 26.88069 | 49.85976 | 37735 ft | 419 kts | 282° |
| 2026-05-05 19:58 | 26.89899 | 49.79771 | 37742 ft | 420 kts | 282° |
| 2026-05-05 19:58 | 26.91727 | 49.73561 | 37726 ft | 420 kts | 282° |
| 2026-05-05 19:59 | 26.93557 | 49.67333 | 37712 ft | 421 kts | 282° |
| 2026-05-05 19:59 | 26.95388 | 49.61091 | 37719 ft | 422 kts | 282° |
| 2026-05-05 20:00 | 26.97206 | 49.54883 | 37714 ft | 422 kts | 282° |
| 2026-05-05 20:00 | 26.99044 | 49.48596 | 37712 ft | 421 kts | 282° |
| 2026-05-05 20:01 | 27.00916 | 49.42414 | 37725 ft | 424 kts | 285° |
| 2026-05-05 20:01 | 27.03543 | 49.36436 | 37721 ft | 431 kts | 292° |
| 2026-05-05 20:02 | 27.06514 | 49.30602 | 37726 ft | 431 kts | 292° |
| 2026-05-05 20:02 | 27.09467 | 49.24755 | 37739 ft | 430 kts | 291° |
| 2026-05-05 20:03 | 27.12402 | 49.18905 | 37733 ft | 430 kts | 291° |
| 2026-05-05 20:03 | 27.15356 | 49.13003 | 37740 ft | 430 kts | 291° |
| 2026-05-05 20:04 | 27.18266 | 49.07182 | 37753 ft | 431 kts | 291° |
| 2026-05-05 20:04 | 27.21198 | 49.01311 | 37749 ft | 431 kts | 291° |
| 2026-05-05 20:05 | 27.24131 | 48.95443 | 37751 ft | 431 kts | 291° |
| 2026-05-05 20:05 | 27.27066 | 48.89576 | 37757 ft | 430 kts | 291° |
| 2026-05-05 20:06 | 27.29991 | 48.83718 | 37754 ft | 430 kts | 291° |
| 2026-05-05 20:06 | 27.32913 | 48.77858 | 37775 ft | 429 kts | 291° |
| 2026-05-05 20:07 | 27.35826 | 48.72005 | 37766 ft | 428 kts | 291° |
| 2026-05-05 20:07 | 27.38729 | 48.66166 | 37761 ft | 427 kts | 291° |
| 2026-05-05 20:08 | 27.41622 | 48.60340 | 37774 ft | 426 kts | 291° |
| 2026-05-05 20:08 | 27.44508 | 48.54517 | 37777 ft | 425 kts | 291° |
| 2026-05-05 20:09 | 27.47385 | 48.48704 | 37791 ft | 425 kts | 291° |
| 2026-05-05 20:09 | 27.50258 | 48.42892 | 37793 ft | 425 kts | 290° |
| 2026-05-05 20:10 | 27.53130 | 48.37074 | 37785 ft | 424 kts | 290° |
| 2026-05-05 20:10 | 27.55995 | 48.31263 | 37790 ft | 424 kts | 290° |
| 2026-05-05 20:11 | 27.58861 | 48.25439 | 37819 ft | 424 kts | 290° |
| 2026-05-05 20:11 | 27.61716 | 48.19615 | 37807 ft | 425 kts | 290° |
| 2026-05-05 20:12 | 27.64569 | 48.13788 | 37799 ft | 424 kts | 290° |
| 2026-05-05 20:12 | 27.67416 | 48.07965 | 37802 ft | 424 kts | 290° |
| 2026-05-05 20:13 | 27.70259 | 48.02146 | 37808 ft | 423 kts | 290° |
| 2026-05-05 20:13 | 27.73096 | 47.96335 | 37813 ft | 423 kts | 290° |
| 2026-05-05 20:14 | 27.75926 | 47.90533 | 37808 ft | 421 kts | 289° |
| 2026-05-05 20:14 | 27.78737 | 47.84758 | 37815 ft | 419 kts | 289° |
| 2026-05-05 20:15 | 27.81516 | 47.79041 | 37826 ft | 417 kts | 289° |
| 2026-05-05 20:15 | 27.84215 | 47.73273 | 37847 ft | 411 kts | 285° |
| 2026-05-05 20:16 | 27.86187 | 47.67296 | 37837 ft | 404 kts | 281° |
| 2026-05-05 20:16 | 27.88024 | 47.61306 | 37839 ft | 403 kts | 281° |
| 2026-05-05 20:17 | 27.89868 | 47.55328 | 37829 ft | 402 kts | 281° |
| 2026-05-05 20:17 | 27.91711 | 47.49356 | 37841 ft | 402 kts | 281° |
| 2026-05-05 20:18 | 27.93552 | 47.43380 | 37843 ft | 403 kts | 281° |
| 2026-05-05 20:18 | 27.95392 | 47.37394 | 37843 ft | 403 kts | 281° |
| 2026-05-05 20:19 | 27.97234 | 47.31397 | 37848 ft | 404 kts | 281° |
| 2026-05-05 20:19 | 27.99075 | 47.25390 | 37861 ft | 404 kts | 281° |
| 2026-05-05 20:20 | 28.00915 | 47.19376 | 37859 ft | 404 kts | 281° |
| 2026-05-05 20:20 | 28.02753 | 47.13358 | 37859 ft | 405 kts | 281° |
| 2026-05-05 20:21 | 28.04590 | 47.07330 | 37863 ft | 405 kts | 281° |
| 2026-05-05 20:21 | 28.06116 | 47.02319 | 37866 ft | 405 kts | 281° |
| 2026-05-05 20:22 | 28.07947 | 46.96294 | 37866 ft | 404 kts | 281° |
| 2026-05-05 20:22 | 28.10068 | 46.89300 | 37862 ft | 404 kts | 281° |
| 2026-05-05 20:23 | 28.11977 | 46.83316 | 37862 ft | 405 kts | 282° |
| 2026-05-05 20:23 | 28.13664 | 46.78327 | 37880 ft | 405 kts | 282° |
| 2026-05-05 20:24 | 28.15671 | 46.72376 | 37872 ft | 404 kts | 282° |
| 2026-05-05 20:24 | 28.17648 | 46.66458 | 37868 ft | 404 kts | 282° |
| 2026-05-05 20:25 | 28.19626 | 46.60505 | 37871 ft | 404 kts | 282° |
| 2026-05-05 20:25 | 28.21598 | 46.54551 | 37878 ft | 404 kts | 282° |
| 2026-05-05 20:26 | 28.23569 | 46.48592 | 37882 ft | 404 kts | 282° |
| 2026-05-05 20:26 | 28.25540 | 46.42624 | 37885 ft | 404 kts | 282° |
| 2026-05-05 20:27 | 28.27509 | 46.36653 | 37887 ft | 404 kts | 282° |
| 2026-05-05 20:27 | 28.29477 | 46.30674 | 37903 ft | 405 kts | 282° |
| 2026-05-05 20:28 | 28.31443 | 46.24693 | 37911 ft | 405 kts | 282° |
| 2026-05-05 20:28 | 28.33410 | 46.18697 | 37929 ft | 406 kts | 282° |
| 2026-05-05 20:29 | 28.35376 | 46.12696 | 37917 ft | 406 kts | 282° |
| 2026-05-05 20:29 | 28.37468 | 46.06723 | 37922 ft | 408 kts | 284° |
| 2026-05-05 20:30 | 28.39718 | 46.00793 | 37917 ft | 409 kts | 284° |
| 2026-05-05 20:30 | 28.41963 | 45.94860 | 37903 ft | 408 kts | 284° |
| 2026-05-05 20:31 | 28.44180 | 45.88927 | 37909 ft | 408 kts | 284° |
| 2026-05-05 20:31 | 28.46384 | 45.82990 | 37906 ft | 408 kts | 284° |
| 2026-05-05 20:32 | 28.48569 | 45.77088 | 37902 ft | 407 kts | 284° |
| 2026-05-05 20:32 | 28.50780 | 45.71104 | 37910 ft | 408 kts | 283° |
| 2026-05-05 20:33 | 28.52961 | 45.65195 | 37924 ft | 409 kts | 283° |
| 2026-05-05 20:33 | 28.55159 | 45.59228 | 37920 ft | 409 kts | 283° |
| 2026-05-05 20:34 | 28.57362 | 45.53240 | 37913 ft | 411 kts | 283° |
| 2026-05-05 20:34 | 28.59566 | 45.47240 | 37916 ft | 412 kts | 283° |
| 2026-05-05 20:35 | 28.61773 | 45.41221 | 37920 ft | 412 kts | 283° |
| 2026-05-05 20:35 | 28.63983 | 45.35186 | 37931 ft | 413 kts | 283° |
| 2026-05-05 20:36 | 28.66194 | 45.29138 | 37928 ft | 414 kts | 283° |
| 2026-05-05 20:36 | 28.68403 | 45.23084 | 37922 ft | 414 kts | 283° |
| 2026-05-05 20:37 | 28.70611 | 45.17026 | 37917 ft | 414 kts | 283° |
| 2026-05-05 20:37 | 28.72814 | 45.10969 | 37955 ft | 414 kts | 283° |
| 2026-05-05 20:38 | 28.75016 | 45.04904 | 37943 ft | 414 kts | 283° |
| 2026-05-05 20:38 | 28.77213 | 44.98844 | 37946 ft | 414 kts | 283° |
| 2026-05-05 20:39 | 28.79407 | 44.92783 | 37933 ft | 413 kts | 283° |
| 2026-05-05 20:39 | 28.81593 | 44.86731 | 37930 ft | 413 kts | 283° |
| 2026-05-05 20:40 | 28.83761 | 44.80723 | 37935 ft | 412 kts | 283° |
| 2026-05-05 20:40 | 28.85557 | 44.74611 | 37941 ft | 402 kts | 275° |
| 2026-05-05 20:41 | 28.86532 | 44.68396 | 37936 ft | 394 kts | 269° |
| 2026-05-05 20:41 | 28.87032 | 44.62175 | 37939 ft | 394 kts | 268° |
| 2026-05-05 20:42 | 28.87509 | 44.55942 | 37946 ft | 395 kts | 268° |
| 2026-05-05 20:42 | 28.87995 | 44.49708 | 37909 ft | 395 kts | 268° |
| 2026-05-05 20:43 | 28.88488 | 44.43468 | 37940 ft | 395 kts | 268° |
| 2026-05-05 20:43 | 28.88981 | 44.37216 | 37953 ft | 396 kts | 268° |
| 2026-05-05 20:44 | 28.89472 | 44.30956 | 37949 ft | 396 kts | 268° |
| 2026-05-05 20:44 | 28.89961 | 44.24690 | 37945 ft | 396 kts | 268° |
| 2026-05-05 20:45 | 28.90688 | 44.15295 | 37952 ft | 396 kts | 268° |
| 2026-05-05 20:45 | 28.91169 | 44.09033 | 37949 ft | 396 kts | 268° |
| 2026-05-05 20:46 | 28.91643 | 44.02826 | 37978 ft | 395 kts | 268° |
| 2026-05-05 20:46 | 28.92117 | 43.96582 | 37969 ft | 395 kts | 268° |
| 2026-05-05 20:47 | 28.92587 | 43.90349 | 37948 ft | 394 kts | 268° |
| 2026-05-05 20:47 | 28.93053 | 43.84128 | 37950 ft | 392 kts | 268° |
| 2026-05-05 20:48 | 28.93516 | 43.77917 | 37964 ft | 393 kts | 268° |
| 2026-05-05 20:48 | 28.93975 | 43.71703 | 37964 ft | 393 kts | 268° |
| 2026-05-05 20:49 | 28.94432 | 43.65487 | 37962 ft | 393 kts | 268° |
| 2026-05-05 20:49 | 28.94888 | 43.59256 | 37960 ft | 394 kts | 268° |
| 2026-05-05 20:50 | 28.95341 | 43.53020 | 37958 ft | 395 kts | 268° |
| 2026-05-05 20:50 | 28.95789 | 43.46772 | 37964 ft | 395 kts | 268° |
| 2026-05-05 20:51 | 28.96230 | 43.40525 | 37996 ft | 395 kts | 268° |
| 2026-05-05 20:51 | 28.96671 | 43.34273 | 37982 ft | 395 kts | 268° |
| 2026-05-05 20:52 | 28.97108 | 43.28032 | 37971 ft | 393 kts | 268° |
| 2026-05-05 20:52 | 28.97541 | 43.21815 | 37969 ft | 392 kts | 268° |
| 2026-05-05 20:53 | 28.97969 | 43.15612 | 37979 ft | 391 kts | 268° |
| 2026-05-05 20:53 | 28.98393 | 43.09425 | 37988 ft | 391 kts | 268° |
| 2026-05-05 20:54 | 28.98814 | 43.03237 | 37986 ft | 391 kts | 268° |
| 2026-05-05 20:54 | 28.99196 | 42.97604 | 37993 ft | 391 kts | 268° |
| 2026-05-05 20:55 | 28.99608 | 42.91468 | 37992 ft | 390 kts | 268° |
| 2026-05-05 20:55 | 29.00021 | 42.85303 | 37995 ft | 389 kts | 268° |
| 2026-05-05 20:56 | 29.00429 | 42.79152 | 37998 ft | 388 kts | 268° |
| 2026-05-05 20:56 | 29.00833 | 42.73013 | 38001 ft | 387 kts | 268° |
| 2026-05-05 20:57 | 29.01234 | 42.66879 | 38005 ft | 387 kts | 268° |
| 2026-05-05 20:57 | 29.01632 | 42.60745 | 38046 ft | 387 kts | 267° |
| 2026-05-05 20:58 | 29.02028 | 42.54615 | 38002 ft | 386 kts | 268° |
| 2026-05-05 20:58 | 29.02420 | 42.48492 | 38007 ft | 386 kts | 268° |
| 2026-05-05 20:59 | 29.02809 | 42.42372 | 38018 ft | 386 kts | 267° |
| 2026-05-05 20:59 | 29.03195 | 42.36245 | 38023 ft | 387 kts | 267° |
| 2026-05-05 21:00 | 29.03580 | 42.30115 | 38018 ft | 386 kts | 267° |
| 2026-05-05 21:00 | 29.03961 | 42.23998 | 38018 ft | 386 kts | 267° |
| 2026-05-05 21:01 | 29.04338 | 42.17886 | 38039 ft | 385 kts | 267° |
| 2026-05-05 21:01 | 29.04714 | 42.11782 | 38006 ft | 385 kts | 267° |
| 2026-05-05 21:02 | 29.05087 | 42.05689 | 38024 ft | 384 kts | 267° |
| 2026-05-05 21:02 | 29.05456 | 41.99609 | 38032 ft | 383 kts | 267° |
| 2026-05-05 21:03 | 29.05823 | 41.93531 | 38031 ft | 384 kts | 266° |
| 2026-05-05 21:03 | 29.06189 | 41.87451 | 38030 ft | 383 kts | 267° |
| 2026-05-05 21:04 | 29.06554 | 41.81374 | 38031 ft | 383 kts | 267° |
| 2026-05-05 21:04 | 29.06917 | 41.75293 | 38038 ft | 384 kts | 267° |
| 2026-05-05 21:05 | 29.07276 | 41.69202 | 38037 ft | 384 kts | 267° |
| 2026-05-05 21:05 | 29.07634 | 41.63100 | 38037 ft | 385 kts | 267° |
| 2026-05-05 21:06 | 29.07990 | 41.56992 | 38042 ft | 385 kts | 267° |
| 2026-05-05 21:06 | 29.08344 | 41.50869 | 38043 ft | 386 kts | 266° |
| 2026-05-05 21:07 | 29.08695 | 41.44737 | 38040 ft | 387 kts | 266° |
| 2026-05-05 21:07 | 29.09042 | 41.38605 | 38039 ft | 386 kts | 266° |
| 2026-05-05 21:08 | 29.09380 | 41.32515 | 38057 ft | 387 kts | 266° |
| 2026-05-05 21:08 | 29.09716 | 41.26386 | 38053 ft | 386 kts | 266° |
| 2026-05-05 21:09 | 29.10049 | 41.20257 | 38020 ft | 386 kts | 266° |
| 2026-05-05 21:09 | 29.10380 | 41.14141 | 38047 ft | 385 kts | 266° |
| 2026-05-05 21:10 | 29.10709 | 41.08027 | 38060 ft | 385 kts | 266° |
| 2026-05-05 21:10 | 29.11034 | 41.01908 | 38047 ft | 385 kts | 266° |
| 2026-05-05 21:11 | 29.11357 | 40.95796 | 38060 ft | 386 kts | 266° |
| 2026-05-05 21:11 | 29.11678 | 40.89671 | 38089 ft | 386 kts | 266° |
| 2026-05-05 21:12 | 29.11995 | 40.83547 | 38068 ft | 386 kts | 266° |
| 2026-05-05 21:12 | 29.12258 | 40.78450 | 38053 ft | 386 kts | 266° |
| 2026-05-05 21:13 | 29.12569 | 40.72324 | 38072 ft | 386 kts | 266° |
| 2026-05-05 21:13 | 29.12880 | 40.66195 | 38066 ft | 386 kts | 266° |
| 2026-05-05 21:14 | 29.13234 | 40.59078 | 38067 ft | 385 kts | 265° |
| 2026-05-05 21:14 | 29.13205 | 40.53985 | 38072 ft | 381 kts | 262° |
| 2026-05-05 21:15 | 29.12997 | 40.47925 | 38064 ft | 381 kts | 262° |
| 2026-05-05 21:15 | 29.12787 | 40.41865 | 38075 ft | 382 kts | 262° |
| 2026-05-05 21:16 | 29.12580 | 40.35785 | 38071 ft | 383 kts | 262° |
| 2026-05-05 21:16 | 29.12375 | 40.29730 | 38074 ft | 384 kts | 262° |
| 2026-05-05 21:17 | 29.12168 | 40.23622 | 38087 ft | 385 kts | 262° |
| 2026-05-05 21:17 | 29.11957 | 40.17498 | 38071 ft | 386 kts | 262° |
| 2026-05-05 21:18 | 29.11742 | 40.11368 | 38074 ft | 386 kts | 262° |
| 2026-05-05 21:18 | 29.11525 | 40.05237 | 38065 ft | 386 kts | 261° |
| 2026-05-05 21:19 | 29.11306 | 39.99110 | 38071 ft | 386 kts | 262° |
| 2026-05-05 21:19 | 29.11085 | 39.92995 | 38071 ft | 384 kts | 262° |
| 2026-05-05 21:20 | 29.10941 | 39.86887 | 38063 ft | 385 kts | 263° |
| 2026-05-05 21:20 | 29.10992 | 39.80775 | 38067 ft | 384 kts | 264° |
| 2026-05-05 21:21 | 29.11047 | 39.74666 | 38069 ft | 384 kts | 264° |
| 2026-05-05 21:21 | 29.11080 | 39.68560 | 38062 ft | 384 kts | 264° |
| 2026-05-05 21:22 | 29.11101 | 39.62452 | 38063 ft | 384 kts | 264° |
| 2026-05-05 21:22 | 29.11115 | 39.56343 | 38079 ft | 385 kts | 264° |
| 2026-05-05 21:23 | 29.11126 | 39.50217 | 38064 ft | 385 kts | 264° |
| 2026-05-05 21:23 | 29.11134 | 39.44085 | 38067 ft | 386 kts | 264° |
| 2026-05-05 21:24 | 29.11140 | 39.37945 | 38065 ft | 386 kts | 264° |
| 2026-05-05 21:24 | 29.11143 | 39.31845 | 38037 ft | 387 kts | 264° |
| 2026-05-05 21:25 | 29.11144 | 39.25695 | 38056 ft | 387 kts | 264° |
| 2026-05-05 21:25 | 29.11141 | 39.19543 | 38058 ft | 387 kts | 264° |
| 2026-05-05 21:26 | 29.11136 | 39.13380 | 38060 ft | 388 kts | 264° |
| 2026-05-05 21:26 | 29.11128 | 39.07215 | 38057 ft | 388 kts | 264° |
| 2026-05-05 21:27 | 29.11118 | 39.01037 | 38057 ft | 389 kts | 264° |
| 2026-05-05 21:27 | 29.11105 | 38.94856 | 38057 ft | 389 kts | 264° |
| 2026-05-05 21:28 | 29.11085 | 38.88676 | 38084 ft | 389 kts | 264° |
| 2026-05-05 21:28 | 29.11060 | 38.82489 | 38061 ft | 389 kts | 264° |
| 2026-05-05 21:29 | 29.11032 | 38.76301 | 38051 ft | 389 kts | 264° |
| 2026-05-05 21:29 | 29.11002 | 38.70112 | 38051 ft | 389 kts | 264° |
| 2026-05-05 21:30 | 29.10970 | 38.63927 | 38061 ft | 389 kts | 264° |
| 2026-05-05 21:30 | 29.10934 | 38.57744 | 38065 ft | 389 kts | 264° |
| 2026-05-05 21:31 | 29.10895 | 38.51554 | 38058 ft | 389 kts | 264° |
| 2026-05-05 21:31 | 29.10855 | 38.45363 | 38052 ft | 390 kts | 264° |
| 2026-05-05 21:32 | 29.10811 | 38.39202 | 38053 ft | 390 kts | 264° |
| 2026-05-05 21:32 | 29.10761 | 38.32999 | 38046 ft | 390 kts | 264° |
| 2026-05-05 21:33 | 29.10705 | 38.26795 | 38038 ft | 390 kts | 264° |
| 2026-05-05 21:33 | 29.10646 | 38.20589 | 38058 ft | 391 kts | 264° |
| 2026-05-05 21:34 | 29.10584 | 38.14371 | 38056 ft | 391 kts | 264° |
| 2026-05-05 21:34 | 29.10520 | 38.08142 | 38044 ft | 392 kts | 264° |
| 2026-05-05 21:35 | 29.10454 | 38.01908 | 38004 ft | 392 kts | 264° |
| 2026-05-05 21:35 | 29.10385 | 37.95679 | 38028 ft | 392 kts | 264° |
| 2026-05-05 21:36 | 29.10312 | 37.89449 | 38039 ft | 392 kts | 264° |
| 2026-05-05 21:36 | 29.10236 | 37.83215 | 38039 ft | 392 kts | 264° |
| 2026-05-05 21:37 | 29.10158 | 37.76980 | 38040 ft | 392 kts | 264° |
| 2026-05-05 21:37 | 29.10077 | 37.70744 | 38063 ft | 392 kts | 264° |
| 2026-05-05 21:38 | 29.09993 | 37.64498 | 38044 ft | 393 kts | 264° |
| 2026-05-05 21:38 | 29.09906 | 37.58247 | 38041 ft | 393 kts | 264° |
| 2026-05-05 21:39 | 29.09816 | 37.51993 | 38039 ft | 394 kts | 264° |
| 2026-05-05 21:39 | 29.09753 | 37.45733 | 38061 ft | 394 kts | 264° |
| 2026-05-05 21:40 | 29.09718 | 37.39463 | 38046 ft | 394 kts | 264° |
| 2026-05-05 21:40 | 29.09680 | 37.33196 | 38016 ft | 394 kts | 264° |
| 2026-05-05 21:41 | 29.09636 | 37.26978 | 38030 ft | 394 kts | 264° |
| 2026-05-05 21:41 | 29.09586 | 37.20685 | 38049 ft | 394 kts | 264° |
| 2026-05-05 21:42 | 29.09534 | 37.14468 | 38042 ft | 393 kts | 264° |
| 2026-05-05 21:42 | 29.09479 | 37.08211 | 38039 ft | 394 kts | 264° |
| 2026-05-05 21:43 | 29.09420 | 37.01954 | 38037 ft | 394 kts | 264° |
| 2026-05-05 21:43 | 29.09359 | 36.95695 | 38039 ft | 394 kts | 264° |
| 2026-05-05 21:44 | 29.09295 | 36.89428 | 38032 ft | 394 kts | 264° |
| 2026-05-05 21:44 | 29.09228 | 36.83165 | 38026 ft | 394 kts | 264° |
| 2026-05-05 21:45 | 29.09158 | 36.76898 | 38030 ft | 394 kts | 264° |
| 2026-05-05 21:45 | 29.09085 | 36.70632 | 38030 ft | 395 kts | 264° |
| 2026-05-05 21:46 | 29.09009 | 36.64353 | 38033 ft | 395 kts | 264° |
| 2026-05-05 21:46 | 29.08931 | 36.58079 | 38024 ft | 395 kts | 264° |
| 2026-05-05 21:47 | 29.08850 | 36.51804 | 38029 ft | 395 kts | 264° |
| 2026-05-05 21:47 | 29.08751 | 36.45527 | 38045 ft | 395 kts | 264° |
| 2026-05-05 21:48 | 29.08579 | 36.39242 | 38035 ft | 396 kts | 263° |
| 2026-05-05 21:48 | 29.08396 | 36.32956 | 38035 ft | 396 kts | 263° |
| 2026-05-05 21:49 | 29.08217 | 36.26662 | 38034 ft | 396 kts | 264° |
| 2026-05-05 21:49 | 29.08038 | 36.20361 | 38047 ft | 397 kts | 264° |
| 2026-05-05 21:50 | 29.07857 | 36.14050 | 38035 ft | 398 kts | 264° |
| 2026-05-05 21:50 | 29.07672 | 36.07718 | 38031 ft | 399 kts | 264° |
| 2026-05-05 21:51 | 29.07485 | 36.01383 | 38032 ft | 399 kts | 264° |
| 2026-05-05 21:51 | 29.07296 | 35.95087 | 38039 ft | 399 kts | 263° |
| 2026-05-05 21:52 | 29.07005 | 35.85595 | 38040 ft | 398 kts | 264° |
| 2026-05-05 21:53 | 29.06808 | 35.79268 | 38048 ft | 398 kts | 263° |
| 2026-05-05 21:53 | 29.06607 | 35.72956 | 38070 ft | 398 kts | 263° |
| 2026-05-05 21:54 | 29.06404 | 35.66634 | 38053 ft | 398 kts | 263° |
| 2026-05-05 21:54 | 29.06198 | 35.60319 | 38051 ft | 398 kts | 263° |
| 2026-05-05 21:55 | 29.05988 | 35.53999 | 38064 ft | 398 kts | 263° |
| 2026-05-05 21:55 | 29.05775 | 35.47676 | 38074 ft | 398 kts | 263° |
| 2026-05-05 21:56 | 29.05560 | 35.41342 | 38059 ft | 399 kts | 263° |
| 2026-05-05 21:56 | 29.05341 | 35.35004 | 38048 ft | 399 kts | 263° |
| 2026-05-05 21:57 | 29.05120 | 35.28671 | 38058 ft | 399 kts | 263° |
| 2026-05-05 21:57 | 29.04894 | 35.22345 | 38029 ft | 398 kts | 263° |
| 2026-05-05 21:58 | 29.04668 | 35.16025 | 38055 ft | 398 kts | 263° |
| 2026-05-05 21:58 | 29.04438 | 35.09696 | 38048 ft | 399 kts | 263° |
| 2026-05-05 21:59 | 29.04205 | 35.03370 | 38052 ft | 399 kts | 263° |
| 2026-05-05 21:59 | 29.03968 | 34.97042 | 38063 ft | 399 kts | 263° |
| 2026-05-05 22:00 | 29.03729 | 34.90696 | 38041 ft | 400 kts | 263° |
| 2026-05-05 22:00 | 29.03488 | 34.84382 | 38048 ft | 400 kts | 264° |
| 2026-05-05 22:01 | 29.03340 | 34.78017 | 38037 ft | 401 kts | 264° |
| 2026-05-05 22:01 | 29.03285 | 34.71607 | 38038 ft | 403 kts | 269° |
| 2026-05-05 22:02 | 29.04048 | 34.65275 | 38035 ft | 407 kts | 275° |
| 2026-05-05 22:02 | 29.05516 | 34.58976 | 38062 ft | 413 kts | 281° |
| 2026-05-05 22:03 | 29.07370 | 34.52742 | 38067 ft | 415 kts | 282° |
| 2026-05-05 22:03 | 29.09236 | 34.46497 | 38086 ft | 415 kts | 282° |
| 2026-05-05 22:04 | 29.10772 | 34.41295 | 38073 ft | 416 kts | 282° |
| 2026-05-05 22:04 | 29.12605 | 34.35031 | 38065 ft | 415 kts | 282° |
| 2026-05-05 22:05 | 29.14432 | 34.28767 | 38084 ft | 415 kts | 282° |
| 2026-05-05 22:05 | 29.16254 | 34.22501 | 38082 ft | 416 kts | 282° |
| 2026-05-05 22:06 | 29.18076 | 34.16230 | 38099 ft | 416 kts | 282° |
| 2026-05-05 22:06 | 29.19898 | 34.09944 | 38105 ft | 417 kts | 282° |
| 2026-05-05 22:07 | 29.21723 | 34.03634 | 38108 ft | 418 kts | 282° |
| 2026-05-05 22:07 | 29.23551 | 33.97306 | 38102 ft | 419 kts | 282° |
| 2026-05-05 22:08 | 29.25378 | 33.90972 | 38109 ft | 419 kts | 282° |
| 2026-05-05 22:08 | 29.27204 | 33.84634 | 38106 ft | 419 kts | 282° |
| 2026-05-05 22:09 | 29.29025 | 33.78300 | 38097 ft | 418 kts | 282° |
| 2026-05-05 22:09 | 29.30841 | 33.71969 | 38105 ft | 418 kts | 282° |
| 2026-05-05 22:10 | 29.32652 | 33.65641 | 38108 ft | 418 kts | 282° |
| 2026-05-05 22:10 | 29.34463 | 33.59298 | 38100 ft | 418 kts | 282° |
| 2026-05-05 22:11 | 29.36270 | 33.52958 | 38097 ft | 419 kts | 282° |
| 2026-05-05 22:11 | 29.38075 | 33.46616 | 38098 ft | 419 kts | 282° |
| 2026-05-05 22:12 | 29.39865 | 33.40311 | 38105 ft | 419 kts | 282° |
| 2026-05-05 22:12 | 29.41666 | 33.33957 | 38096 ft | 419 kts | 282° |
| 2026-05-05 22:13 | 29.43464 | 33.27598 | 38097 ft | 419 kts | 282° |
| 2026-05-05 22:13 | 29.45261 | 33.21228 | 38097 ft | 420 kts | 282° |
| 2026-05-05 22:14 | 29.47057 | 33.14850 | 38115 ft | 420 kts | 282° |
| 2026-05-05 22:14 | 29.48852 | 33.08462 | 38098 ft | 421 kts | 282° |
| 2026-05-05 22:15 | 29.50651 | 33.02051 | 38094 ft | 422 kts | 282° |
| 2026-05-05 22:15 | 29.52451 | 32.95615 | 37511 ft | 431 kts | 282° |
| 2026-05-05 22:15 | 29.53367 | 32.92328 | 36871 ft | 432 kts | 283° |
| 2026-05-05 22:16 | 29.54284 | 32.89049 | 36144 ft | 431 kts | 283° |
| 2026-05-05 22:16 | 29.55200 | 32.85767 | 35395 ft | 431 kts | 283° |
| 2026-05-05 22:16 | 29.56116 | 32.82479 | 34590 ft | 433 kts | 284° |
| 2026-05-05 22:16 | 29.57035 | 32.79178 | 33724 ft | 436 kts | 284° |
| 2026-05-05 22:17 | 29.57960 | 32.75850 | 32779 ft | 438 kts | 284° |
| 2026-05-05 22:17 | 29.58888 | 32.72511 | 31868 ft | 440 kts | 284° |
| 2026-05-05 22:17 | 29.59817 | 32.69159 | 30973 ft | 441 kts | 284° |
| 2026-05-05 22:17 | 29.60657 | 32.65785 | 30296 ft | 437 kts | 282° |
| 2026-05-05 22:18 | 29.61429 | 32.62422 | 29526 ft | 435 kts | 282° |
| 2026-05-05 22:18 | 29.62179 | 32.59069 | 28807 ft | 431 kts | 282° |
| 2026-05-05 22:18 | 29.62919 | 32.55743 | 28128 ft | 428 kts | 282° |
| 2026-05-05 22:18 | 29.63654 | 32.52446 | 27467 ft | 424 kts | 282° |
| 2026-05-05 22:19 | 29.64386 | 32.49178 | 26816 ft | 421 kts | 282° |
| 2026-05-05 22:19 | 29.65115 | 32.45933 | 26179 ft | 418 kts | 282° |
| 2026-05-05 22:19 | 29.65840 | 32.42712 | 25539 ft | 415 kts | 282° |
| 2026-05-05 22:19 | 29.66560 | 32.39508 | 24917 ft | 413 kts | 282° |
| 2026-05-05 22:20 | 29.67277 | 32.36320 | 24280 ft | 411 kts | 283° |
| 2026-05-05 22:20 | 29.67989 | 32.33148 | 23647 ft | 410 kts | 283° |
| 2026-05-05 22:20 | 29.68700 | 32.29982 | 22917 ft | 408 kts | 283° |
| 2026-05-05 22:20 | 29.69406 | 32.26833 | 22263 ft | 405 kts | 283° |
| 2026-05-05 22:21 | 29.70104 | 32.23714 | 21635 ft | 401 kts | 283° |
| 2026-05-05 22:21 | 29.70795 | 32.20622 | 21020 ft | 398 kts | 283° |
| 2026-05-05 22:21 | 29.71481 | 32.17553 | 20428 ft | 395 kts | 283° |
| 2026-05-05 22:21 | 29.72160 | 32.14506 | 19829 ft | 392 kts | 283° |
| 2026-05-05 22:22 | 29.72835 | 32.11475 | 19232 ft | 390 kts | 283° |
| 2026-05-05 22:22 | 29.73505 | 32.08458 | 18631 ft | 388 kts | 283° |
| 2026-05-05 22:22 | 29.74172 | 32.05456 | 17981 ft | 387 kts | 283° |
| 2026-05-05 22:22 | 29.74836 | 32.02465 | 17348 ft | 384 kts | 283° |
| 2026-05-05 22:23 | 29.75493 | 31.99500 | 16753 ft | 381 kts | 283° |
| 2026-05-05 22:23 | 29.76146 | 31.96556 | 16163 ft | 378 kts | 283° |
| 2026-05-05 22:23 | 29.76679 | 31.94144 | 15692 ft | 377 kts | 283° |
| 2026-05-05 22:23 | 29.77317 | 31.91266 | 15107 ft | 363 kts | 284° |
| 2026-05-05 22:24 | 29.78099 | 31.88575 | 14562 ft | 348 kts | 291° |
| 2026-05-05 22:24 | 29.79114 | 31.86113 | 14053 ft | 334 kts | 295° |
| 2026-05-05 22:24 | 29.80228 | 31.83817 | 13518 ft | 323 kts | 300° |
| 2026-05-05 22:24 | 29.81511 | 31.81743 | 12986 ft | 312 kts | 304° |
| 2026-05-05 22:25 | 29.82788 | 31.79787 | 12682 ft | 296 kts | 304° |
| 2026-05-05 22:25 | 29.83987 | 31.77954 | 12473 ft | 280 kts | 304° |
| 2026-05-05 22:25 | 29.85142 | 31.76176 | 11948 ft | 275 kts | 304° |
| 2026-05-05 22:25 | 29.86273 | 31.74425 | 11499 ft | 278 kts | 304° |
| 2026-05-05 22:26 | 29.87434 | 31.72625 | 11028 ft | 282 kts | 304° |
| 2026-05-05 22:26 | 29.88607 | 31.70801 | 10561 ft | 285 kts | 304° |
| 2026-05-05 22:26 | 29.89783 | 31.68945 | 10091 ft | 284 kts | 300° |
| 2026-05-05 22:26 | 29.90485 | 31.66845 | 9549 ft | 281 kts | 278° |
| 2026-05-05 22:27 | 29.90619 | 31.64627 | 9058 ft | 275 kts | 271° |
| 2026-05-05 22:27 | 29.90577 | 31.62447 | 8532 ft | 270 kts | 266° |
| 2026-05-05 22:27 | 29.90381 | 31.60311 | 8029 ft | 267 kts | 264° |
| 2026-05-05 22:27 | 29.90156 | 31.58233 | 7846 ft | 251 kts | 264° |
| 2026-05-05 22:28 | 29.89936 | 31.56280 | 7728 ft | 245 kts | 264° |
| 2026-05-05 22:28 | 29.89713 | 31.54321 | 7264 ft | 249 kts | 264° |
| 2026-05-05 22:28 | 29.89487 | 31.52338 | 6787 ft | 249 kts | 264° |
| 2026-05-05 22:28 | 29.89258 | 31.50365 | 6288 ft | 248 kts | 264° |
| 2026-05-05 22:29 | 29.89020 | 31.48399 | 5776 ft | 247 kts | 262° |
| 2026-05-05 22:29 | 29.88429 | 31.46547 | 5256 ft | 250 kts | 239° |
| 2026-05-05 22:29 | 29.87416 | 31.44927 | 4786 ft | 249 kts | 236° |
| 2026-05-05 22:29 | 29.86389 | 31.43318 | 4273 ft | 250 kts | 236° |
| 2026-05-05 22:30 | 29.85359 | 31.41712 | 3819 ft | 248 kts | 236° |
| 2026-05-05 22:30 | 29.84448 | 31.40079 | 3506 ft | 237 kts | 250° |
| 2026-05-05 22:30 | 29.83962 | 31.38293 | 3266 ft | 235 kts | 257° |
| 2026-05-05 22:30 | 29.83504 | 31.36452 | 3129 ft | 242 kts | 257° |
| 2026-05-05 22:31 | 29.83035 | 31.34572 | 3104 ft | 245 kts | 257° |
| 2026-05-05 22:31 | 29.82862 | 31.32674 | 3022 ft | 236 kts | 284° |
| 2026-05-05 22:31 | 29.83535 | 31.31001 | 3020 ft | 227 kts | 314° |
| 2026-05-05 22:31 | 29.84760 | 31.29953 | 3017 ft | 215 kts | 336° |
| 2026-05-05 22:32 | 29.86122 | 31.29336 | 3021 ft | 208 kts | 341° |
| 2026-05-05 22:32 | 29.87487 | 31.28783 | 3015 ft | 207 kts | 342° |
| 2026-05-05 22:32 | 29.88854 | 31.28232 | 3035 ft | 209 kts | 341° |
| 2026-05-05 22:32 | 29.90209 | 31.27680 | 3009 ft | 202 kts | 341° |
| 2026-05-05 22:33 | 29.91490 | 31.27152 | 3039 ft | 189 kts | 341° |
| 2026-05-05 22:33 | 29.92769 | 31.26621 | 3060 ft | 201 kts | 341° |
| 2026-05-05 22:33 | 29.94096 | 31.26068 | 3031 ft | 203 kts | 340° |
| 2026-05-05 22:33 | 29.95425 | 31.25512 | 3032 ft | 204 kts | 340° |
| 2026-05-05 22:34 | 29.96759 | 31.24974 | 3016 ft | 201 kts | 347° |
| 2026-05-05 22:34 | 29.98113 | 31.25065 | 3043 ft | 197 kts | 23° |
| 2026-05-05 22:34 | 29.99214 | 31.26014 | 3034 ft | 199 kts | 40° |
| 2026-05-05 22:34 | 30.00232 | 31.27085 | 3027 ft | 196 kts | 41° |
| 2026-05-05 22:35 | 30.01160 | 31.28185 | 3008 ft | 187 kts | 45° |
| 2026-05-05 22:35 | 30.01990 | 31.29263 | 3001 ft | 172 kts | 46° |
| 2026-05-05 22:35 | 30.02753 | 31.30273 | 2798 ft | 161 kts | 46° |
| 2026-05-05 22:35 | 30.03445 | 31.31192 | 2634 ft | 145 kts | 46° |
| 2026-05-05 22:36 | 30.04107 | 31.32069 | 2430 ft | 145 kts | 45° |
| 2026-05-05 22:36 | 30.04770 | 31.32946 | 2229 ft | 145 kts | 46° |
| 2026-05-05 22:36 | 30.05430 | 31.33821 | 2045 ft | 144 kts | 45° |
| 2026-05-05 22:36 | 30.06087 | 31.34692 | 1843 ft | 143 kts | 45° |
| 2026-05-05 22:37 | 30.06741 | 31.35564 | 1618 ft | 145 kts | 46° |
| 2026-05-05 22:37 | 30.07397 | 31.36441 | 1346 ft | 142 kts | 46° |
| 2026-05-05 22:37 | 30.08050 | 31.37303 | 1113 ft | 144 kts | 46° |
| 2026-05-05 22:37 | 30.08708 | 31.38166 | 937 ft | 144 kts | 46° |
| 2026-05-05 22:38 | 30.09366 | 31.39043 | 661 ft | 143 kts | 46° |
| 2026-05-05 22:38 | 30.10013 | 31.39891 | 402 ft | 138 kts | 46° |
| 2026-05-05 22:38 | 30.10602 | 31.40664 | 379 ft | 110 kts | 49° |
| 2026-05-05 22:38 | 30.10979 | 31.41170 | 379 ft | 56 kts | 49° |
| 2026-05-05 22:39 | 30.11223 | 31.41485 | 378 ft | 38 kts | 39° |
| 2026-05-05 22:39 | 30.11436 | 31.41608 | 379 ft | 29 kts | 19° |
| 2026-05-05 22:39 | 30.11563 | 31.41617 | 379 ft | 9 kts | 335° |
| 2026-05-05 22:39 | 30.11565 | 31.41565 | 379 ft | 8 kts | 248° |
| 2026-05-05 22:40 | 30.11521 | 31.41490 | 379 ft | 15 kts | 234° |
| 2026-05-05 22:40 | 30.11440 | 31.41385 | 379 ft | 20 kts | 228° |
| 2026-05-05 22:40 | 30.11337 | 31.41248 | 379 ft | 25 kts | 229° |
| 2026-05-05 22:40 | 30.11216 | 31.41088 | 379 ft | 28 kts | 229° |
| 2026-05-05 22:41 | 30.11102 | 31.40936 | 379 ft | 20 kts | 230° |
| 2026-05-05 22:41 | 30.11077 | 31.40812 | 379 ft | 14 kts | 288° |
| 2026-05-05 22:41 | 30.11042 | 31.40698 | 379 ft | 17 kts | 231° |
| 2026-05-05 22:41 | 30.11067 | 31.40589 | 379 ft | 13 kts | 308° |
| 2026-05-05 22:42 | 30.11084 | 31.40486 | 379 ft | 9 kts | 270° |
| 2026-05-05 22:42 | 30.11084 | 31.40462 | 379 ft | 0 kts | 270° |